sensor_id;sensor_type;location;lat;lon;timestamp;temperature;humidity
25250;DHT22;13201;51.148;13.738;2023-06-22T00:02:16;21.10;99.90
25250;DHT22;13201;51.148;13.738;2023-06-22T00:04:42;21.10;99.90
25250;DHT22;13201;51.148;13.738;2023-06-22T00:07:08;21.00;99.90
25250;DHT22;13201;51.148;13.738;2023-06-22T00:09:34;20.90;99.90
25250;DHT22;13201;51.148;13.738;2023-06-22T00:12:00;20.90;99.90
25250;DHT22;13201;51.148;13.738;2023-06-22T00:14:25;20.70;99.90
25250;DHT22;13201;51.148;13.738;2023-06-22T00:16:51;20.60;99.90
25250;DHT22;13201;51.148;13.738;2023-06-22T00:19:21;20.70;99.90
25250;DHT22;13201;51.148;13.738;2023-06-22T00:21:47;20.60;99.90
25250;DHT22;13201;51.148;13.738;2023-06-22T00:24:18;20.60;99.90
25250;DHT22;13201;51.148;13.738;2023-06-22T00:26:44;20.60;99.90
25250;DHT22;13201;51.148;13.738;2023-06-22T00:29:10;20.60;99.90
25250;DHT22;13201;51.148;13.738;2023-06-22T00:31:36;20.70;99.90
25250;DHT22;13201;51.148;13.738;2023-06-22T00:34:02;20.50;99.90
25250;DHT22;13201;51.148;13.738;2023-06-22T00:36:28;20.60;99.90
25250;DHT22;13201;51.148;13.738;2023-06-22T00:38:53;20.70;99.90
25250;DHT22;13201;51.148;13.738;2023-06-22T00:41:19;20.70;99.90
25250;DHT22;13201;51.148;13.738;2023-06-22T00:43:45;20.60;99.90
25250;DHT22;13201;51.148;13.738;2023-06-22T00:46:11;20.60;99.90
25250;DHT22;13201;51.148;13.738;2023-06-22T00:48:37;20.60;99.90
25250;DHT22;13201;51.148;13.738;2023-06-22T00:51:03;20.60;99.90
25250;DHT22;13201;51.148;13.738;2023-06-22T00:53:29;20.60;99.90
25250;DHT22;13201;51.148;13.738;2023-06-22T00:55:55;20.60;99.90
25250;DHT22;13201;51.148;13.738;2023-06-22T00:58:21;20.60;99.90
25250;DHT22;13201;51.148;13.738;2023-06-22T01:00:47;20.50;99.90
25250;DHT22;13201;51.148;13.738;2023-06-22T01:03:13;20.50;99.90
25250;DHT22;13201;51.148;13.738;2023-06-22T01:29:58;19.10;99.90
25250;DHT22;13201;51.148;13.738;2023-06-22T01:32:34;19.00;99.90
25250;DHT22;13201;51.148;13.738;2023-06-22T01:35:03;18.90;99.90
25250;DHT22;13201;51.148;13.738;2023-06-22T01:37:29;19.00;99.90
25250;DHT22;13201;51.148;13.738;2023-06-22T01:39:58;19.10;99.90
25250;DHT22;13201;51.148;13.738;2023-06-22T01:42:24;19.10;99.90
25250;DHT22;13201;51.148;13.738;2023-06-22T01:44:53;19.20;99.90
25250;DHT22;13201;51.148;13.738;2023-06-22T01:47:20;19.20;99.90
25250;DHT22;13201;51.148;13.738;2023-06-22T01:49:46;19.30;99.90
25250;DHT22;13201;51.148;13.738;2023-06-22T01:52:12;19.40;99.90
25250;DHT22;13201;51.148;13.738;2023-06-22T01:54:39;19.50;99.90
25250;DHT22;13201;51.148;13.738;2023-06-22T01:57:05;19.50;99.90
25250;DHT22;13201;51.148;13.738;2023-06-22T01:59:37;19.50;99.90
25250;DHT22;13201;51.148;13.738;2023-06-22T02:02:09;19.50;99.90
25250;DHT22;13201;51.148;13.738;2023-06-22T02:05:00;19.30;99.90
25250;DHT22;13201;51.148;13.738;2023-06-22T02:07:31;19.30;99.90
25250;DHT22;13201;51.148;13.738;2023-06-22T02:09:59;19.20;99.90
25250;DHT22;13201;51.148;13.738;2023-06-22T02:12:26;19.30;99.90
25250;DHT22;13201;51.148;13.738;2023-06-22T02:14:53;19.30;99.90
25250;DHT22;13201;51.148;13.738;2023-06-22T02:17:19;19.30;99.90
25250;DHT22;13201;51.148;13.738;2023-06-22T02:19:45;19.20;99.90
25250;DHT22;13201;51.148;13.738;2023-06-22T02:22:11;18.80;99.90
25250;DHT22;13201;51.148;13.738;2023-06-22T02:24:38;18.70;99.90
25250;DHT22;13201;51.148;13.738;2023-06-22T02:27:04;18.90;99.90
25250;DHT22;13201;51.148;13.738;2023-06-22T02:29:32;19.10;99.90
25250;DHT22;13201;51.148;13.738;2023-06-22T02:31:58;19.30;99.90
25250;DHT22;13201;51.148;13.738;2023-06-22T02:34:24;19.40;99.90
25250;DHT22;13201;51.148;13.738;2023-06-22T02:36:50;19.20;99.90
25250;DHT22;13201;51.148;13.738;2023-06-22T02:39:23;19.00;99.90
25250;DHT22;13201;51.148;13.738;2023-06-22T02:41:53;18.90;99.90
25250;DHT22;13201;51.148;13.738;2023-06-22T02:44:19;18.90;99.90
25250;DHT22;13201;51.148;13.738;2023-06-22T02:46:46;19.00;99.90
25250;DHT22;13201;51.148;13.738;2023-06-22T02:49:12;19.00;99.90
25250;DHT22;13201;51.148;13.738;2023-06-22T02:51:45;19.10;99.90
25250;DHT22;13201;51.148;13.738;2023-06-22T02:54:11;19.20;99.90
25250;DHT22;13201;51.148;13.738;2023-06-22T02:56:36;19.20;99.90
25250;DHT22;13201;51.148;13.738;2023-06-22T02:59:02;19.10;99.90
25250;DHT22;13201;51.148;13.738;2023-06-22T03:01:28;19.10;99.90
25250;DHT22;13201;51.148;13.738;2023-06-22T03:03:59;19.20;99.90
25250;DHT22;13201;51.148;13.738;2023-06-22T03:06:24;19.20;99.90
25250;DHT22;13201;51.148;13.738;2023-06-22T03:08:58;19.20;99.90
25250;DHT22;13201;51.148;13.738;2023-06-22T03:11:24;19.10;99.90
25250;DHT22;13201;51.148;13.738;2023-06-22T03:13:49;19.10;99.90
25250;DHT22;13201;51.148;13.738;2023-06-22T03:16:17;19.10;99.90
25250;DHT22;13201;51.148;13.738;2023-06-22T03:18:43;19.00;99.90
25250;DHT22;13201;51.148;13.738;2023-06-22T03:21:09;18.80;99.90
25250;DHT22;13201;51.148;13.738;2023-06-22T03:23:35;18.70;99.90
25250;DHT22;13201;51.148;13.738;2023-06-22T03:26:01;18.80;99.90
25250;DHT22;13201;51.148;13.738;2023-06-22T03:28:26;18.90;99.90
25250;DHT22;13201;51.148;13.738;2023-06-22T03:30:52;18.90;99.90
25250;DHT22;13201;51.148;13.738;2023-06-22T03:33:18;18.90;99.90
25250;DHT22;13201;51.148;13.738;2023-06-22T03:35:43;19.00;99.90
25250;DHT22;13201;51.148;13.738;2023-06-22T03:38:09;19.00;99.90
25250;DHT22;13201;51.148;13.738;2023-06-22T03:40:35;19.00;99.90
25250;DHT22;13201;51.148;13.738;2023-06-22T03:43:00;19.00;99.90
25250;DHT22;13201;51.148;13.738;2023-06-22T03:45:26;18.70;99.90
25250;DHT22;13201;51.148;13.738;2023-06-22T03:47:51;19.00;99.90
25250;DHT22;13201;51.148;13.738;2023-06-22T03:50:17;19.10;99.90
25250;DHT22;13201;51.148;13.738;2023-06-22T03:52:45;19.20;99.90
25250;DHT22;13201;51.148;13.738;2023-06-22T03:55:11;19.30;99.90
25250;DHT22;13201;51.148;13.738;2023-06-22T03:57:37;19.40;99.90
25250;DHT22;13201;51.148;13.738;2023-06-22T04:00:03;19.40;99.90
25250;DHT22;13201;51.148;13.738;2023-06-22T04:02:31;19.50;99.90
25250;DHT22;13201;51.148;13.738;2023-06-22T04:04:57;19.60;99.90
25250;DHT22;13201;51.148;13.738;2023-06-22T04:07:22;19.60;99.90
25250;DHT22;13201;51.148;13.738;2023-06-22T04:09:48;19.50;99.90
25250;DHT22;13201;51.148;13.738;2023-06-22T04:12:14;19.50;99.90
25250;DHT22;13201;51.148;13.738;2023-06-22T04:14:39;19.60;99.90
25250;DHT22;13201;51.148;13.738;2023-06-22T04:17:05;19.70;99.90
25250;DHT22;13201;51.148;13.738;2023-06-22T04:19:31;19.50;99.90
25250;DHT22;13201;51.148;13.738;2023-06-22T04:21:56;19.40;99.90
25250;DHT22;13201;51.148;13.738;2023-06-22T04:24:22;19.30;99.90
25250;DHT22;13201;51.148;13.738;2023-06-22T04:26:48;19.40;99.90
25250;DHT22;13201;51.148;13.738;2023-06-22T04:29:14;19.60;99.90
25250;DHT22;13201;51.148;13.738;2023-06-22T04:31:39;19.80;99.90
25250;DHT22;13201;51.148;13.738;2023-06-22T04:34:07;20.00;99.90
25250;DHT22;13201;51.148;13.738;2023-06-22T04:36:37;20.00;99.90
25250;DHT22;13201;51.148;13.738;2023-06-22T04:39:10;20.10;99.90
25250;DHT22;13201;51.148;13.738;2023-06-22T04:41:40;20.20;99.90
25250;DHT22;13201;51.148;13.738;2023-06-22T04:44:15;20.20;99.90
25250;DHT22;13201;51.148;13.738;2023-06-22T04:47:08;20.30;99.90
25250;DHT22;13201;51.148;13.738;2023-06-22T04:49:35;20.40;99.90
25250;DHT22;13201;51.148;13.738;2023-06-22T04:52:06;20.50;99.90
25250;DHT22;13201;51.148;13.738;2023-06-22T04:54:33;20.60;99.90
25250;DHT22;13201;51.148;13.738;2023-06-22T04:57:00;20.60;99.90
25250;DHT22;13201;51.148;13.738;2023-06-22T04:59:27;20.60;99.90
25250;DHT22;13201;51.148;13.738;2023-06-22T05:02:05;20.80;99.90
25250;DHT22;13201;51.148;13.738;2023-06-22T05:04:31;21.00;99.90
25250;DHT22;13201;51.148;13.738;2023-06-22T05:06:58;21.10;99.90
25250;DHT22;13201;51.148;13.738;2023-06-22T05:09:24;21.30;99.90
25250;DHT22;13201;51.148;13.738;2023-06-22T05:11:51;21.40;99.90
25250;DHT22;13201;51.148;13.738;2023-06-22T05:14:16;21.50;99.90
25250;DHT22;13201;51.148;13.738;2023-06-22T05:16:43;21.70;99.90
25250;DHT22;13201;51.148;13.738;2023-06-22T05:19:09;21.90;99.90
25250;DHT22;13201;51.148;13.738;2023-06-22T05:21:35;22.00;99.90
25250;DHT22;13201;51.148;13.738;2023-06-22T05:24:01;22.10;99.90
25250;DHT22;13201;51.148;13.738;2023-06-22T05:26:31;22.10;99.90
25250;DHT22;13201;51.148;13.738;2023-06-22T05:28:59;22.30;99.90
25250;DHT22;13201;51.148;13.738;2023-06-22T05:31:26;22.40;99.90
25250;DHT22;13201;51.148;13.738;2023-06-22T05:33:53;22.30;99.90
25250;DHT22;13201;51.148;13.738;2023-06-22T05:36:19;22.50;99.90
25250;DHT22;13201;51.148;13.738;2023-06-22T05:38:45;22.80;99.90
25250;DHT22;13201;51.148;13.738;2023-06-22T05:41:11;22.90;99.90
25250;DHT22;13201;51.148;13.738;2023-06-22T05:43:37;22.90;99.90
25250;DHT22;13201;51.148;13.738;2023-06-22T05:46:04;23.20;99.90
25250;DHT22;13201;51.148;13.738;2023-06-22T05:48:30;23.20;99.90
25250;DHT22;13201;51.148;13.738;2023-06-22T05:50:56;23.10;99.90
25250;DHT22;13201;51.148;13.738;2023-06-22T05:53:22;23.30;99.90
25250;DHT22;13201;51.148;13.738;2023-06-22T05:55:48;23.30;99.90
25250;DHT22;13201;51.148;13.738;2023-06-22T05:58:13;23.50;99.90
25250;DHT22;13201;51.148;13.738;2023-06-22T06:00:40;23.70;99.90
25250;DHT22;13201;51.148;13.738;2023-06-22T06:03:07;23.80;99.90
25250;DHT22;13201;51.148;13.738;2023-06-22T06:05:33;23.90;99.90
25250;DHT22;13201;51.148;13.738;2023-06-22T06:08:04;23.90;99.90
25250;DHT22;13201;51.148;13.738;2023-06-22T06:10:31;24.00;99.90
25250;DHT22;13201;51.148;13.738;2023-06-22T06:12:57;24.20;99.90
25250;DHT22;13201;51.148;13.738;2023-06-22T06:15:23;24.20;99.90
25250;DHT22;13201;51.148;13.738;2023-06-22T06:17:50;24.30;99.90
25250;DHT22;13201;51.148;13.738;2023-06-22T06:20:19;24.20;99.90
25250;DHT22;13201;51.148;13.738;2023-06-22T06:22:46;24.40;99.90
25250;DHT22;13201;51.148;13.738;2023-06-22T06:25:12;24.60;99.90
25250;DHT22;13201;51.148;13.738;2023-06-22T06:27:42;24.70;99.90
25250;DHT22;13201;51.148;13.738;2023-06-22T06:30:09;25.10;99.90
25250;DHT22;13201;51.148;13.738;2023-06-22T06:32:35;25.10;99.90
25250;DHT22;13201;51.148;13.738;2023-06-22T06:35:01;24.90;99.90
25250;DHT22;13201;51.148;13.738;2023-06-22T06:37:27;24.90;99.90
25250;DHT22;13201;51.148;13.738;2023-06-22T06:39:53;24.90;99.90
25250;DHT22;13201;51.148;13.738;2023-06-22T06:42:19;24.90;99.90
25250;DHT22;13201;51.148;13.738;2023-06-22T06:44:45;25.00;99.90
25250;DHT22;13201;51.148;13.738;2023-06-22T06:47:11;24.90;99.90
25250;DHT22;13201;51.148;13.738;2023-06-22T06:49:36;25.10;99.90
25250;DHT22;13201;51.148;13.738;2023-06-22T06:52:02;25.10;99.90
25250;DHT22;13201;51.148;13.738;2023-06-22T06:54:28;25.10;99.90
25250;DHT22;13201;51.148;13.738;2023-06-22T06:56:53;25.10;99.90
25250;DHT22;13201;51.148;13.738;2023-06-22T06:59:19;25.10;99.90
25250;DHT22;13201;51.148;13.738;2023-06-22T07:01:45;25.10;99.90
25250;DHT22;13201;51.148;13.738;2023-06-22T07:04:10;25.10;99.90
25250;DHT22;13201;51.148;13.738;2023-06-22T07:06:36;25.40;99.90
25250;DHT22;13201;51.148;13.738;2023-06-22T07:09:03;25.40;99.90
25250;DHT22;13201;51.148;13.738;2023-06-22T07:11:29;25.50;99.90
25250;DHT22;13201;51.148;13.738;2023-06-22T07:13:54;25.50;99.90
25250;DHT22;13201;51.148;13.738;2023-06-22T07:16:20;25.60;99.90
25250;DHT22;13201;51.148;13.738;2023-06-22T07:18:46;25.80;99.90
25250;DHT22;13201;51.148;13.738;2023-06-22T07:21:11;25.90;99.90
25250;DHT22;13201;51.148;13.738;2023-06-22T07:23:37;26.00;99.90
25250;DHT22;13201;51.148;13.738;2023-06-22T07:26:02;26.10;99.90
25250;DHT22;13201;51.148;13.738;2023-06-22T07:28:28;26.20;99.90
25250;DHT22;13201;51.148;13.738;2023-06-22T07:30:57;26.40;99.90
25250;DHT22;13201;51.148;13.738;2023-06-22T07:33:22;26.70;99.90
25250;DHT22;13201;51.148;13.738;2023-06-22T07:35:48;26.90;99.90
25250;DHT22;13201;51.148;13.738;2023-06-22T07:38:16;27.00;99.90
25250;DHT22;13201;51.148;13.738;2023-06-22T07:40:42;27.10;99.90
25250;DHT22;13201;51.148;13.738;2023-06-22T07:43:07;27.20;99.90
25250;DHT22;13201;51.148;13.738;2023-06-22T07:45:33;27.10;99.90
25250;DHT22;13201;51.148;13.738;2023-06-22T07:48:01;27.00;99.90
25250;DHT22;13201;51.148;13.738;2023-06-22T07:50:26;27.00;99.90
25250;DHT22;13201;51.148;13.738;2023-06-22T07:52:52;27.00;99.90
25250;DHT22;13201;51.148;13.738;2023-06-22T07:55:18;26.90;99.90
25250;DHT22;13201;51.148;13.738;2023-06-22T07:57:46;27.10;99.90
25250;DHT22;13201;51.148;13.738;2023-06-22T08:00:12;27.50;99.90
25250;DHT22;13201;51.148;13.738;2023-06-22T08:02:40;27.50;99.90
25250;DHT22;13201;51.148;13.738;2023-06-22T08:05:07;27.70;99.90
25250;DHT22;13201;51.148;13.738;2023-06-22T08:07:34;27.80;99.90
25250;DHT22;13201;51.148;13.738;2023-06-22T08:10:03;27.90;99.90
25250;DHT22;13201;51.148;13.738;2023-06-22T08:12:29;28.00;99.90
25250;DHT22;13201;51.148;13.738;2023-06-22T08:14:55;28.00;99.90
25250;DHT22;13201;51.148;13.738;2023-06-22T08:17:22;28.10;99.90
25250;DHT22;13201;51.148;13.738;2023-06-22T08:19:48;28.10;99.90
25250;DHT22;13201;51.148;13.738;2023-06-22T08:22:15;28.20;99.90
25250;DHT22;13201;51.148;13.738;2023-06-22T08:24:40;28.40;99.90
25250;DHT22;13201;51.148;13.738;2023-06-22T08:27:10;28.60;99.90
25250;DHT22;13201;51.148;13.738;2023-06-22T08:29:39;28.70;99.90
25250;DHT22;13201;51.148;13.738;2023-06-22T08:32:05;28.70;99.90
25250;DHT22;13201;51.148;13.738;2023-06-22T08:34:30;28.40;99.90
25250;DHT22;13201;51.148;13.738;2023-06-22T08:36:56;28.00;99.90
25250;DHT22;13201;51.148;13.738;2023-06-22T08:39:22;28.30;99.90
25250;DHT22;13201;51.148;13.738;2023-06-22T08:41:48;28.30;99.90
25250;DHT22;13201;51.148;13.738;2023-06-22T08:44:13;28.30;99.90
25250;DHT22;13201;51.148;13.738;2023-06-22T08:46:39;28.60;99.90
25250;DHT22;13201;51.148;13.738;2023-06-22T08:49:06;28.70;99.90
25250;DHT22;13201;51.148;13.738;2023-06-22T08:51:32;28.70;99.90
25250;DHT22;13201;51.148;13.738;2023-06-22T08:53:58;28.50;99.90
25250;DHT22;13201;51.148;13.738;2023-06-22T08:56:23;28.60;99.90
25250;DHT22;13201;51.148;13.738;2023-06-22T08:58:49;28.80;99.90
25250;DHT22;13201;51.148;13.738;2023-06-22T09:01:15;29.00;99.90
25250;DHT22;13201;51.148;13.738;2023-06-22T09:03:43;29.10;99.90
25250;DHT22;13201;51.148;13.738;2023-06-22T09:06:09;29.30;99.90
25250;DHT22;13201;51.148;13.738;2023-06-22T09:08:35;29.50;99.90
25250;DHT22;13201;51.148;13.738;2023-06-22T09:11:01;29.50;99.90
25250;DHT22;13201;51.148;13.738;2023-06-22T09:13:30;29.70;99.90
25250;DHT22;13201;51.148;13.738;2023-06-22T09:15:56;29.50;99.90
25250;DHT22;13201;51.148;13.738;2023-06-22T09:18:22;29.30;99.90
25250;DHT22;13201;51.148;13.738;2023-06-22T09:20:47;29.60;99.90
25250;DHT22;13201;51.148;13.738;2023-06-22T09:23:13;29.30;99.90
25250;DHT22;13201;51.148;13.738;2023-06-22T09:25:40;29.30;99.90
25250;DHT22;13201;51.148;13.738;2023-06-22T09:28:06;29.30;99.90
25250;DHT22;13201;51.148;13.738;2023-06-22T09:30:32;29.10;99.90
25250;DHT22;13201;51.148;13.738;2023-06-22T09:32:57;29.20;99.90
25250;DHT22;13201;51.148;13.738;2023-06-22T09:35:23;29.60;99.90
25250;DHT22;13201;51.148;13.738;2023-06-22T09:37:48;29.90;99.90
25250;DHT22;13201;51.148;13.738;2023-06-22T09:40:14;30.20;99.90
25250;DHT22;13201;51.148;13.738;2023-06-22T09:42:42;30.40;99.90
25250;DHT22;13201;51.148;13.738;2023-06-22T09:45:08;30.60;99.90
25250;DHT22;13201;51.148;13.738;2023-06-22T09:47:34;30.80;99.90
25250;DHT22;13201;51.148;13.738;2023-06-22T09:50:00;30.80;99.90
25250;DHT22;13201;51.148;13.738;2023-06-22T09:52:25;30.80;99.90
25250;DHT22;13201;51.148;13.738;2023-06-22T09:54:51;30.80;99.90
25250;DHT22;13201;51.148;13.738;2023-06-22T09:57:17;31.20;99.90
25250;DHT22;13201;51.148;13.738;2023-06-22T09:59:42;30.90;99.90
25250;DHT22;13201;51.148;13.738;2023-06-22T10:02:08;31.10;99.90
25250;DHT22;13201;51.148;13.738;2023-06-22T10:04:35;31.10;99.90
25250;DHT22;13201;51.148;13.738;2023-06-22T10:07:01;31.20;99.90
25250;DHT22;13201;51.148;13.738;2023-06-22T10:09:27;31.00;99.90
25250;DHT22;13201;51.148;13.738;2023-06-22T10:11:53;31.20;99.90
25250;DHT22;13201;51.148;13.738;2023-06-22T10:14:19;30.60;99.90
25250;DHT22;13201;51.148;13.738;2023-06-22T10:16:44;30.30;99.90
25250;DHT22;13201;51.148;13.738;2023-06-22T10:19:10;30.40;99.90
25250;DHT22;13201;51.148;13.738;2023-06-22T10:21:36;30.40;99.90
25250;DHT22;13201;51.148;13.738;2023-06-22T10:24:02;30.60;99.90
25250;DHT22;13201;51.148;13.738;2023-06-22T10:26:35;30.90;99.90
25250;DHT22;13201;51.148;13.738;2023-06-22T10:29:04;31.10;99.90
25250;DHT22;13201;51.148;13.738;2023-06-22T10:31:30;31.30;99.90
25250;DHT22;13201;51.148;13.738;2023-06-22T10:33:56;31.50;99.90
25250;DHT22;13201;51.148;13.738;2023-06-22T10:36:22;31.80;99.90
25250;DHT22;13201;51.148;13.738;2023-06-22T10:38:48;31.30;99.90
25250;DHT22;13201;51.148;13.738;2023-06-22T10:41:14;31.20;99.90
25250;DHT22;13201;51.148;13.738;2023-06-22T10:43:40;31.60;99.90
25250;DHT22;13201;51.148;13.738;2023-06-22T10:46:06;31.50;99.90
25250;DHT22;13201;51.148;13.738;2023-06-22T10:48:32;31.80;99.90
25250;DHT22;13201;51.148;13.738;2023-06-22T10:50:57;31.90;99.90
25250;DHT22;13201;51.148;13.738;2023-06-22T10:53:23;31.60;99.90
25250;DHT22;13201;51.148;13.738;2023-06-22T10:55:49;31.60;99.90
25250;DHT22;13201;51.148;13.738;2023-06-22T10:58:15;32.10;99.90
25250;DHT22;13201;51.148;13.738;2023-06-22T11:00:40;31.70;99.90
25250;DHT22;13201;51.148;13.738;2023-06-22T11:03:06;32.00;99.90
25250;DHT22;13201;51.148;13.738;2023-06-22T11:05:32;32.00;99.90
25250;DHT22;13201;51.148;13.738;2023-06-22T11:07:58;31.90;99.90
25250;DHT22;13201;51.148;13.738;2023-06-22T11:10:23;31.80;99.90
25250;DHT22;13201;51.148;13.738;2023-06-22T11:12:49;31.80;99.90
25250;DHT22;13201;51.148;13.738;2023-06-22T11:15:15;32.10;99.90
25250;DHT22;13201;51.148;13.738;2023-06-22T11:17:40;32.60;99.90
25250;DHT22;13201;51.148;13.738;2023-06-22T11:20:07;32.90;99.90
25250;DHT22;13201;51.148;13.738;2023-06-22T11:22:42;32.50;99.90
25250;DHT22;13201;51.148;13.738;2023-06-22T11:25:08;33.00;99.90
25250;DHT22;13201;51.148;13.738;2023-06-22T11:27:34;32.80;99.90
25250;DHT22;13201;51.148;13.738;2023-06-22T11:30:00;32.50;99.90
25250;DHT22;13201;51.148;13.738;2023-06-22T11:32:26;32.50;99.90
25250;DHT22;13201;51.148;13.738;2023-06-22T11:34:51;32.30;99.90
25250;DHT22;13201;51.148;13.738;2023-06-22T11:37:17;32.60;99.90
25250;DHT22;13201;51.148;13.738;2023-06-22T11:39:43;32.60;99.90
25250;DHT22;13201;51.148;13.738;2023-06-22T11:42:12;32.60;99.90
25250;DHT22;13201;51.148;13.738;2023-06-22T11:44:37;32.10;99.90
25250;DHT22;13201;51.148;13.738;2023-06-22T11:47:03;31.70;99.90
25250;DHT22;13201;51.148;13.738;2023-06-22T11:49:32;31.10;99.90
25250;DHT22;13201;51.148;13.738;2023-06-22T11:51:58;31.40;99.90
25250;DHT22;13201;51.148;13.738;2023-06-22T11:54:24;31.90;99.90
25250;DHT22;13201;51.148;13.738;2023-06-22T11:56:49;32.30;99.90
25250;DHT22;13201;51.148;13.738;2023-06-22T11:59:15;32.20;99.90
25250;DHT22;13201;51.148;13.738;2023-06-22T12:01:41;32.20;99.90
25250;DHT22;13201;51.148;13.738;2023-06-22T12:04:06;32.10;99.90
25250;DHT22;13201;51.148;13.738;2023-06-22T12:06:33;32.20;99.90
25250;DHT22;13201;51.148;13.738;2023-06-22T12:09:03;32.80;99.90
25250;DHT22;13201;51.148;13.738;2023-06-22T12:11:30;32.80;99.60
25250;DHT22;13201;51.148;13.738;2023-06-22T12:13:56;32.60;99.90
25250;DHT22;13201;51.148;13.738;2023-06-22T12:16:21;32.90;99.90
25250;DHT22;13201;51.148;13.738;2023-06-22T12:18:48;32.80;99.90
25250;DHT22;13201;51.148;13.738;2023-06-22T12:21:14;32.60;99.70
25250;DHT22;13201;51.148;13.738;2023-06-22T12:23:39;32.60;99.90
25250;DHT22;13201;51.148;13.738;2023-06-22T12:26:05;32.60;99.90
25250;DHT22;13201;51.148;13.738;2023-06-22T12:28:31;32.40;99.90
25250;DHT22;13201;51.148;13.738;2023-06-22T12:30:57;32.20;99.90
25250;DHT22;13201;51.148;13.738;2023-06-22T12:33:22;32.20;99.90
25250;DHT22;13201;51.148;13.738;2023-06-22T12:35:48;32.10;99.90
25250;DHT22;13201;51.148;13.738;2023-06-22T12:38:14;31.90;99.90
25250;DHT22;13201;51.148;13.738;2023-06-22T12:40:40;32.10;99.90
25250;DHT22;13201;51.148;13.738;2023-06-22T12:43:06;32.80;99.90
25250;DHT22;13201;51.148;13.738;2023-06-22T12:45:33;33.20;99.90
25250;DHT22;13201;51.148;13.738;2023-06-22T12:48:00;33.40;99.90
25250;DHT22;13201;51.148;13.738;2023-06-22T12:50:26;33.60;99.70
25250;DHT22;13201;51.148;13.738;2023-06-22T12:52:52;33.80;99.70
25250;DHT22;13201;51.148;13.738;2023-06-22T12:55:17;34.50;98.80
25250;DHT22;13201;51.148;13.738;2023-06-22T12:57:43;34.60;98.60
25250;DHT22;13201;51.148;13.738;2023-06-22T13:00:09;34.70;98.20
25250;DHT22;13201;51.148;13.738;2023-06-22T13:02:35;34.00;98.90
25250;DHT22;13201;51.148;13.738;2023-06-22T13:05:02;33.30;98.90
25250;DHT22;13201;51.148;13.738;2023-06-22T13:07:28;33.10;98.80
25250;DHT22;13201;51.148;13.738;2023-06-22T13:09:53;32.90;99.20
25250;DHT22;13201;51.148;13.738;2023-06-22T13:12:22;32.80;99.10
25250;DHT22;13201;51.148;13.738;2023-06-22T13:14:48;32.50;99.60
25250;DHT22;13201;51.148;13.738;2023-06-22T13:17:14;32.80;99.30
25250;DHT22;13201;51.148;13.738;2023-06-22T13:19:40;33.60;98.90
25250;DHT22;13201;51.148;13.738;2023-06-22T13:22:30;33.70;98.50
25250;DHT22;13201;51.148;13.738;2023-06-22T13:24:57;33.70;98.50
25250;DHT22;13201;51.148;13.738;2023-06-22T13:27:23;33.50;98.40
25250;DHT22;13201;51.148;13.738;2023-06-22T13:29:49;33.60;98.80
25250;DHT22;13201;51.148;13.738;2023-06-22T13:32:15;34.40;98.90
25250;DHT22;13201;51.148;13.738;2023-06-22T13:34:42;34.90;98.10
25250;DHT22;13201;51.148;13.738;2023-06-22T13:37:08;35.00;98.10
25250;DHT22;13201;51.148;13.738;2023-06-22T13:39:33;35.20;97.90
25250;DHT22;13201;51.148;13.738;2023-06-22T13:41:59;34.10;97.80
25250;DHT22;13201;51.148;13.738;2023-06-22T13:44:24;34.10;97.90
25250;DHT22;13201;51.148;13.738;2023-06-22T13:46:57;33.70;97.50
25250;DHT22;13201;51.148;13.738;2023-06-22T13:49:22;33.60;98.30
25250;DHT22;13201;51.148;13.738;2023-06-22T13:51:48;33.30;98.50
25250;DHT22;13201;51.148;13.738;2023-06-22T13:54:14;33.20;98.70
25250;DHT22;13201;51.148;13.738;2023-06-22T13:56:40;32.80;99.20
25250;DHT22;13201;51.148;13.738;2023-06-22T13:59:06;33.80;98.90
25250;DHT22;13201;51.148;13.738;2023-06-22T14:01:36;34.40;98.40
25250;DHT22;13201;51.148;13.738;2023-06-22T14:04:02;34.80;97.40
25250;DHT22;13201;51.148;13.738;2023-06-22T14:06:27;34.70;97.40
25250;DHT22;13201;51.148;13.738;2023-06-22T14:08:53;34.70;97.80
25250;DHT22;13201;51.148;13.738;2023-06-22T14:11:19;34.40;97.70
25250;DHT22;13201;51.148;13.738;2023-06-22T14:13:44;34.20;98.00
25250;DHT22;13201;51.148;13.738;2023-06-22T14:16:10;33.40;98.10
25250;DHT22;13201;51.148;13.738;2023-06-22T14:18:36;33.40;98.40
25250;DHT22;13201;51.148;13.738;2023-06-22T14:21:02;32.90;98.50
25250;DHT22;13201;51.148;13.738;2023-06-22T14:23:28;32.80;98.40
25250;DHT22;13201;51.148;13.738;2023-06-22T14:25:53;32.80;98.80
25250;DHT22;13201;51.148;13.738;2023-06-22T14:28:19;33.00;98.80
25250;DHT22;13201;51.148;13.738;2023-06-22T14:30:45;33.80;98.30
25250;DHT22;13201;51.148;13.738;2023-06-22T14:33:11;34.00;98.20
25250;DHT22;13201;51.148;13.738;2023-06-22T14:35:37;33.40;98.50
25250;DHT22;13201;51.148;13.738;2023-06-22T14:38:03;33.20;98.60
25250;DHT22;13201;51.148;13.738;2023-06-22T14:40:28;33.60;98.30
25250;DHT22;13201;51.148;13.738;2023-06-22T14:42:54;34.80;98.30
25250;DHT22;13201;51.148;13.738;2023-06-22T14:45:22;34.90;97.00
25250;DHT22;13201;51.148;13.738;2023-06-22T14:47:48;35.20;98.00
25250;DHT22;13201;51.148;13.738;2023-06-22T14:50:14;35.70;97.30
25250;DHT22;13201;51.148;13.738;2023-06-22T14:52:39;36.20;96.90
25250;DHT22;13201;51.148;13.738;2023-06-22T14:55:05;36.10;96.90
25250;DHT22;13201;51.148;13.738;2023-06-22T14:57:31;36.00;96.40
25250;DHT22;13201;51.148;13.738;2023-06-22T14:59:57;36.20;96.20
25250;DHT22;13201;51.148;13.738;2023-06-22T15:02:22;35.50;95.80
25250;DHT22;13201;51.148;13.738;2023-06-22T15:04:48;35.60;96.50
25250;DHT22;13201;51.148;13.738;2023-06-22T15:07:14;36.00;96.30
25250;DHT22;13201;51.148;13.738;2023-06-22T15:09:40;35.90;95.70
25250;DHT22;13201;51.148;13.738;2023-06-22T15:12:08;35.80;95.90
25250;DHT22;13201;51.148;13.738;2023-06-22T15:14:40;35.80;95.80
25250;DHT22;13201;51.148;13.738;2023-06-22T15:17:09;36.10;95.80
25250;DHT22;13201;51.148;13.738;2023-06-22T15:19:37;36.00;95.80
25250;DHT22;13201;51.148;13.738;2023-06-22T15:22:05;35.70;95.60
25250;DHT22;13201;51.148;13.738;2023-06-22T15:24:31;35.60;95.50
25250;DHT22;13201;51.148;13.738;2023-06-22T15:26:57;35.60;95.60
25250;DHT22;13201;51.148;13.738;2023-06-22T15:29:23;35.70;95.90
25250;DHT22;13201;51.148;13.738;2023-06-22T15:31:49;36.00;95.60
25250;DHT22;13201;51.148;13.738;2023-06-22T15:34:15;36.30;95.40
25250;DHT22;13201;51.148;13.738;2023-06-22T15:36:41;36.30;95.20